createdAt,value
2018-12-10T00:00:42.886Z,90.22
2018-12-10T00:01:42.873Z,90.22
2018-12-10T00:02:42.863Z,89.70
2018-12-10T00:03:42.848Z,90.02
2018-12-10T00:04:42.844Z,89.19
2018-12-10T00:05:42.831Z,89.29
2018-12-10T00:06:42.818Z,89.08
2018-12-10T00:07:42.806Z,88.88
2018-12-10T00:08:42.795Z,88.88
2018-12-10T00:09:42.785Z,88.88
2018-12-10T00:10:42.774Z,88.47
2018-12-10T00:11:42.761Z,88.05
2018-12-10T00:12:42.751Z,88.26
2018-12-10T00:13:42.741Z,87.74
2018-12-10T00:14:42.730Z,87.95
2018-12-10T00:15:42.719Z,87.95
2018-12-10T00:16:42.708Z,88.26
2018-12-10T00:17:42.696Z,87.95
2018-12-10T00:18:42.790Z,88.78
2018-12-10T00:19:42.681Z,88.88
2018-12-10T00:20:42.666Z,88.67
2018-12-10T00:21:42.654Z,88.15
2018-12-10T00:22:42.649Z,89.12
2018-12-10T00:23:42.631Z,88.71
2018-12-10T00:24:42.621Z,88.71
2018-12-10T00:25:42.612Z,88.61
2018-12-10T00:26:42.598Z,88.61
2018-12-10T00:27:42.589Z,89.23
2018-12-10T00:28:42.575Z,89.44
2018-12-10T00:29:42.569Z,89.54
2018-12-10T00:30:42.560Z,89.33
2018-12-10T00:31:42.542Z,89.54
2018-12-10T00:32:42.532Z,89.64
2018-12-10T00:33:42.520Z,89.95
2018-12-10T00:34:42.511Z,89.75
2018-12-10T00:35:42.500Z,89.54
2018-12-10T00:36:42.490Z,89.54
2018-12-10T00:37:42.478Z,89.85
2018-12-10T00:38:42.468Z,89.64
2018-12-10T00:39:42.456Z,89.75
2018-12-10T00:40:42.445Z,89.64
2018-12-10T00:41:42.433Z,89.54
2018-12-10T00:42:42.422Z,89.95
2018-12-10T00:43:42.410Z,89.91
2018-12-10T00:44:42.404Z,90.11
2018-12-10T00:45:42.390Z,89.60
2018-12-10T00:46:42.381Z,89.19
2018-12-10T00:47:42.368Z,89.39
2018-12-10T00:48:42.358Z,89.91
2018-12-10T00:49:42.345Z,88.98
2018-12-10T00:50:42.341Z,89.60
2018-12-10T00:51:42.324Z,89.91
2018-12-10T00:52:42.314Z,89.39
2018-12-10T00:53:42.304Z,89.91
2018-12-10T00:54:42.292Z,90.53
2018-12-10T00:55:42.283Z,90.53
2018-12-10T00:56:42.271Z,90.32
2018-12-10T00:57:42.259Z,88.36
2018-12-10T00:58:42.251Z,87.74
2018-12-10T00:59:42.238Z,88.30
2018-12-10T01:00:42.225Z,89.23
2018-12-10T01:01:42.216Z,88.81
2018-12-10T01:02:42.207Z,89.02
2018-12-10T01:03:42.194Z,89.23
2018-12-10T01:04:42.182Z,89.44
2018-12-10T01:05:42.174Z,90.10
2018-12-10T01:06:42.164Z,89.89
2018-12-10T01:07:42.150Z,89.93
2018-12-10T01:08:42.140Z,90.55
2018-12-10T01:09:42.130Z,90.60
2018-12-10T01:10:42.119Z,90.80
2018-12-10T01:11:42.105Z,90.70
2018-12-10T01:12:42.100Z,90.90
2018-12-10T01:13:42.086Z,91.21
2018-12-10T01:14:42.078Z,91.17
2018-12-10T01:15:42.063Z,91.07
2018-12-10T01:16:42.055Z,91.17
2018-12-10T01:17:42.040Z,91.07
2018-12-10T01:18:42.032Z,90.97
2018-12-10T01:19:42.029Z,91.69
2018-12-10T01:20:42.009Z,92.21
2018-12-10T01:21:41.998Z,92.62
2018-12-10T01:22:41.988Z,92.62
2018-12-10T01:23:41.977Z,92.93
2018-12-10T01:24:41.965Z,92.41
2018-12-10T01:25:41.955Z,92.52
2018-12-10T01:26:41.944Z,92.10
2018-12-10T01:27:41.932Z,92.72
2018-12-10T01:28:41.920Z,92.93
2018-12-10T01:29:41.911Z,93.07
2018-12-10T01:30:41.900Z,93.90
2018-12-10T01:31:41.887Z,93.80
2018-12-10T01:32:41.882Z,93.86
2018-12-10T01:33:41.867Z,92.72
2018-12-10T01:34:41.856Z,92.82
2018-12-10T01:35:41.846Z,92.82
2018-12-10T01:36:41.832Z,93.13
2018-12-10T01:37:41.822Z,93.55
2018-12-10T01:38:41.813Z,93.24
2018-12-10T01:39:41.801Z,93.55
2018-12-10T01:40:41.793Z,94.07
2018-12-10T01:41:43.348Z,94.37
2018-12-10T01:42:41.773Z,93.34
2018-12-10T01:43:41.759Z,92.00
2018-12-10T01:44:41.749Z,91.79
2018-12-10T01:45:41.737Z,92.41
2018-12-10T01:46:41.730Z,91.90
2018-12-10T01:47:41.715Z,92.31
2018-12-10T01:48:41.706Z,91.90
2018-12-10T01:49:41.696Z,91.69
2018-12-10T01:50:41.682Z,91.38
2018-12-10T01:51:41.670Z,91.58
2018-12-10T01:52:41.661Z,92.21
2018-12-10T01:53:41.650Z,92.41
2018-12-10T01:54:41.639Z,92.62
2018-12-10T01:55:41.625Z,92.00
2018-12-10T01:56:41.617Z,92.31
2018-12-10T01:57:41.605Z,92.21
2018-12-10T01:58:41.595Z,92.41
2018-12-10T01:59:41.584Z,92.72
2018-12-10T02:00:41.575Z,93.24
2018-12-10T02:01:41.563Z,93.13
2018-12-10T02:02:41.550Z,92.93
2018-12-10T02:03:41.541Z,93.24
2018-12-10T02:04:41.530Z,93.34
2018-12-10T02:05:41.518Z,92.52
2018-12-10T02:06:41.506Z,91.90
2018-12-10T02:07:41.496Z,91.69
2018-12-10T02:08:41.487Z,92.62
2018-12-10T02:09:41.474Z,92.72
2018-12-10T02:10:41.463Z,92.00
2018-12-10T02:11:41.454Z,91.48
2018-12-10T02:12:41.442Z,91.38
2018-12-10T02:13:41.429Z,91.27
2018-12-10T02:14:41.421Z,91.17
2018-12-10T02:15:41.413Z,91.17
2018-12-10T02:16:41.397Z,91.27
2018-12-10T02:17:41.389Z,91.69
2018-12-10T02:18:41.378Z,91.69
2018-12-10T02:19:41.496Z,90.76
2018-12-10T02:20:41.354Z,91.17
2018-12-10T02:21:41.341Z,89.83
2018-12-10T02:22:41.334Z,90.14
2018-12-10T02:23:41.321Z,90.14
2018-12-10T02:24:41.311Z,90.66
2018-12-10T02:25:41.298Z,91.79
2018-12-10T02:26:41.294Z,91.17
2018-12-10T02:27:41.279Z,90.86
2018-12-10T02:28:41.269Z,90.86
2018-12-10T02:29:41.272Z,92.10
2018-12-10T02:30:41.246Z,90.55
2018-12-10T02:31:41.235Z,90.97
2018-12-10T02:32:41.223Z,90.24
2018-12-10T02:33:41.213Z,90.24
2018-12-10T02:34:41.200Z,89.93
2018-12-10T02:35:41.191Z,90.55
2018-12-10T02:36:41.181Z,91.38
2018-12-10T02:37:41.170Z,90.76
2018-12-10T02:38:41.156Z,90.03
2018-12-10T02:39:41.146Z,89.72
2018-12-10T02:40:41.137Z,90.35
2018-12-10T02:41:41.125Z,90.60
2018-12-10T02:42:41.116Z,91.32
2018-12-10T02:43:41.104Z,90.18
2018-12-10T02:44:41.099Z,90.80
2018-12-10T02:45:41.086Z,90.18
2018-12-10T02:46:41.076Z,90.28
2018-12-10T02:47:41.059Z,90.90
2018-12-10T02:48:41.048Z,90.08
2018-12-10T02:49:41.043Z,89.25
2018-12-10T02:50:41.040Z,89.45
2018-12-10T02:51:41.020Z,89.56
2018-12-10T02:52:41.007Z,89.11
2018-12-10T02:53:40.995Z,89.11
2018-12-10T02:54:40.987Z,88.80
2018-12-10T02:55:40.976Z,89.00
2018-12-10T02:56:40.960Z,88.69
2018-12-10T02:57:40.954Z,88.69
2018-12-10T02:58:40.940Z,89.21
2018-12-10T02:59:40.936Z,89.21
2018-12-10T03:00:40.921Z,88.90
2018-12-10T03:01:40.909Z,89.00
2018-12-10T03:02:40.898Z,88.28
2018-12-10T03:03:40.885Z,88.28
2018-12-10T03:04:40.880Z,88.69
2018-12-10T03:05:40.866Z,88.38
2018-12-10T03:06:40.854Z,88.90
2018-12-10T03:07:40.847Z,87.86
2018-12-10T03:08:40.834Z,88.38
2018-12-10T03:09:40.823Z,88.90
2018-12-10T03:10:40.811Z,88.80
2018-12-10T03:11:40.801Z,89.21
2018-12-10T03:12:40.790Z,89.21
2018-12-10T03:13:40.779Z,89.72
2018-12-10T03:14:40.773Z,89.52
2018-12-10T03:15:40.757Z,88.90
2018-12-10T03:16:40.746Z,89.00
2018-12-10T03:17:40.735Z,89.72
2018-12-10T03:18:40.726Z,89.25
2018-12-10T03:19:40.713Z,88.94
2018-12-10T03:20:40.707Z,88.63
2018-12-10T03:21:40.696Z,88.42
2018-12-10T03:22:40.683Z,89.45
2018-12-10T03:23:40.669Z,89.25
2018-12-10T03:24:40.682Z,90.18
2018-12-10T03:25:40.649Z,90.28
2018-12-10T03:26:40.640Z,89.87
2018-12-10T03:27:40.629Z,89.31
2018-12-10T03:28:40.620Z,88.80
2018-12-10T03:29:40.606Z,89.31
2018-12-10T03:30:40.596Z,89.41
2018-12-10T03:31:40.586Z,90.14
2018-12-10T03:32:40.577Z,89.31
2018-12-10T03:33:40.562Z,89.11
2018-12-10T03:34:40.555Z,89.00
2018-12-10T03:35:40.541Z,89.04
2018-12-10T03:36:40.532Z,87.45
2018-12-10T03:37:40.520Z,87.76
2018-12-10T03:38:40.507Z,87.96
2018-12-10T03:39:40.498Z,88.38
2018-12-10T03:40:40.486Z,87.86
2018-12-10T03:41:40.477Z,88.07
2018-12-10T03:42:40.490Z,87.66
2018-12-10T03:43:40.462Z,87.86
2018-12-10T03:44:40.445Z,87.56
2018-12-10T03:45:40.432Z,87.76
2018-12-10T03:46:40.422Z,88.28
2018-12-10T03:47:40.412Z,87.45
2018-12-10T03:48:40.402Z,87.76
2018-12-10T03:49:40.388Z,89.31
2018-12-10T03:50:40.379Z,88.69
2018-12-10T03:51:40.368Z,87.96
2018-12-10T03:52:40.357Z,88.07
2018-12-10T03:53:40.347Z,88.17
2018-12-10T03:54:40.336Z,88.17
2018-12-10T03:55:40.326Z,87.96
2018-12-10T03:56:40.315Z,87.56
2018-12-10T03:57:40.302Z,87.56
2018-12-10T03:58:40.297Z,87.04
2018-12-10T03:59:40.281Z,87.24
2018-12-10T04:00:40.270Z,87.14
2018-12-10T04:01:40.266Z,87.35
2018-12-10T04:02:40.247Z,87.56
2018-12-10T04:03:40.239Z,87.56
2018-12-10T04:04:40.226Z,87.45
2018-12-10T04:05:40.215Z,87.24
2018-12-10T04:06:40.204Z,87.56
2018-12-10T04:07:40.193Z,88.17
2018-12-10T04:08:40.183Z,87.56
2018-12-10T04:09:40.172Z,87.24
2018-12-10T04:10:40.161Z,87.04
2018-12-10T04:11:40.156Z,87.56
2018-12-10T04:12:40.185Z,87.45
2018-12-10T04:13:40.130Z,87.86
2018-12-10T04:14:40.121Z,88.17
2018-12-10T04:15:40.108Z,88.69
2018-12-10T04:16:40.097Z,88.80
2018-12-10T04:17:40.086Z,88.38
2018-12-10T04:18:40.081Z,87.86
2018-12-10T04:19:40.079Z,87.35
2018-12-10T04:20:40.055Z,87.24
2018-12-10T04:21:40.110Z,87.45
2018-12-10T04:22:40.032Z,87.86
2018-12-10T04:23:40.129Z,87.96
2018-12-10T04:24:40.012Z,87.24
2018-12-10T04:25:40.000Z,87.45
2018-12-10T04:26:39.988Z,87.24
2018-12-10T04:27:39.979Z,87.45
2018-12-10T04:28:39.967Z,86.52
2018-12-10T04:29:39.957Z,86.62
2018-12-10T04:30:39.959Z,87.04
2018-12-10T04:31:39.934Z,87.66
2018-12-10T04:32:39.921Z,87.45
2018-12-10T04:33:39.912Z,87.24
2018-12-10T04:34:39.902Z,87.86
2018-12-10T04:35:39.891Z,86.93
2018-12-10T04:36:39.881Z,86.73
2018-12-10T04:37:39.870Z,87.35
2018-12-10T04:38:39.859Z,87.56
2018-12-10T04:39:39.857Z,86.93
2018-12-10T04:40:39.837Z,87.59
2018-12-10T04:41:39.825Z,87.18
2018-12-10T04:42:39.816Z,87.07
2018-12-10T04:43:39.803Z,87.18
2018-12-10T04:44:39.798Z,87.45
2018-12-10T04:45:39.781Z,87.80
2018-12-10T04:46:39.772Z,87.39
2018-12-10T04:47:39.762Z,87.80
2018-12-10T04:48:39.748Z,88.53
2018-12-10T04:49:39.742Z,89.14
2018-12-10T04:50:39.727Z,89.14
2018-12-10T04:51:39.714Z,89.66
2018-12-10T04:52:39.712Z,89.45
2018-12-10T04:53:39.694Z,89.35
2018-12-10T04:54:39.686Z,89.35
2018-12-10T04:55:39.673Z,89.04
2018-12-10T04:56:39.660Z,88.84
2018-12-10T04:57:39.650Z,88.53
2018-12-10T04:58:39.642Z,89.14
2018-12-10T04:59:39.628Z,88.22
2018-12-10T05:00:39.617Z,88.22
2018-12-10T05:01:39.608Z,88.94
2018-12-10T05:02:39.598Z,88.53
2018-12-10T05:03:39.587Z,87.18
2018-12-10T05:04:39.573Z,87.70
2018-12-10T05:05:39.564Z,87.70
2018-12-10T05:06:39.552Z,88.11
2018-12-10T05:07:39.541Z,89.25
2018-12-10T05:08:39.531Z,88.05
2018-12-10T05:09:39.522Z,88.87
2018-12-10T05:10:39.509Z,88.36
2018-12-10T05:11:39.499Z,89.08
2018-12-10T05:12:39.489Z,89.50
2018-12-10T05:13:39.477Z,89.19
2018-12-10T05:14:39.466Z,90.12
2018-12-10T05:15:39.456Z,89.39
2018-12-10T05:16:39.444Z,88.22
2018-12-10T05:17:39.435Z,88.01
2018-12-10T05:18:39.431Z,88.32
2018-12-10T05:19:39.414Z,88.32
2018-12-10T05:20:39.401Z,87.90
2018-12-10T05:21:39.393Z,87.70
2018-12-10T05:22:39.379Z,88.11
2018-12-10T05:23:39.370Z,87.90
2018-12-10T05:24:39.358Z,88.63
2018-12-10T05:25:39.347Z,89.35
2018-12-10T05:26:39.336Z,89.04
2018-12-10T05:27:39.327Z,88.42
2018-12-10T05:28:39.317Z,89.87
2018-12-10T05:29:39.315Z,90.22
2018-12-10T05:30:39.294Z,90.43
2018-12-10T05:31:39.385Z,89.70
2018-12-10T05:32:39.272Z,90.53
2018-12-10T05:33:39.264Z,90.16
2018-12-10T05:34:39.251Z,90.57
2018-12-10T05:35:39.240Z,91.92
2018-12-10T05:36:39.229Z,92.23
2018-12-10T05:37:39.221Z,92.65
2018-12-10T05:38:39.209Z,91.96
2018-12-10T05:39:39.199Z,92.07
2018-12-10T05:40:39.189Z,92.79
2018-12-10T05:41:39.177Z,93.14
2018-12-10T05:42:39.169Z,93.14
2018-12-10T05:43:39.158Z,93.97
2018-12-10T05:44:39.142Z,93.66
2018-12-10T05:45:39.139Z,93.14
2018-12-10T05:46:39.122Z,93.97
2018-12-10T05:47:39.113Z,94.28
2018-12-10T05:48:39.101Z,93.66
2018-12-10T05:49:39.090Z,93.49
2018-12-10T05:50:39.079Z,93.60
2018-12-10T05:51:39.070Z,93.91
2018-12-10T05:52:39.059Z,94.07
2018-12-10T05:53:39.050Z,94.39
2018-12-10T05:54:39.038Z,94.49
2018-12-10T05:55:39.025Z,94.43
2018-12-10T05:56:39.016Z,94.43
2018-12-10T05:57:39.006Z,94.53
2018-12-10T05:58:38.994Z,95.05
2018-12-10T05:59:38.986Z,94.95
2018-12-10T06:00:38.972Z,94.74
2018-12-10T06:01:38.963Z,95.15
2018-12-10T06:02:38.953Z,95.78
2018-12-10T06:03:38.944Z,95.94
2018-12-10T06:04:38.931Z,96.05
2018-12-10T06:05:38.920Z,95.32
2018-12-10T06:06:39.030Z,95.32
2018-12-10T06:07:38.899Z,94.49
2018-12-10T06:08:38.889Z,94.70
2018-12-10T06:09:38.876Z,94.97
2018-12-10T06:10:38.867Z,94.76
2018-12-10T06:11:38.855Z,94.97
2018-12-10T06:12:38.849Z,94.86
2018-12-10T06:13:38.833Z,94.24
2018-12-10T06:14:38.824Z,94.45
2018-12-10T06:15:38.814Z,94.86
2018-12-10T06:16:38.802Z,94.34
2018-12-10T06:17:38.792Z,94.45
2018-12-10T06:18:38.784Z,94.55
2018-12-10T06:19:38.768Z,95.17
2018-12-10T06:20:38.765Z,95.28
2018-12-10T06:21:38.748Z,94.65
2018-12-10T06:22:38.738Z,94.14
2018-12-10T06:23:38.728Z,94.76
2018-12-10T06:24:38.722Z,95.03
2018-12-10T06:25:38.706Z,95.34
2018-12-10T06:26:38.697Z,94.82
2018-12-10T06:27:38.688Z,94.30
2018-12-10T06:28:38.675Z,94.51
2018-12-10T06:29:38.662Z,94.82
2018-12-10T06:30:38.651Z,95.03
2018-12-10T06:31:38.644Z,95.23
2018-12-10T06:32:38.634Z,95.44
2018-12-10T06:33:38.624Z,95.44
2018-12-10T06:34:38.613Z,95.75
2018-12-10T06:35:38.606Z,95.54
2018-12-10T06:36:38.588Z,94.82
2018-12-10T06:37:38.578Z,93.57
2018-12-10T06:38:38.669Z,93.64
2018-12-10T06:39:38.558Z,93.84
2018-12-10T06:40:38.549Z,94.05
2018-12-10T06:41:38.541Z,93.95
2018-12-10T06:42:38.529Z,93.43
2018-12-10T06:43:38.513Z,91.67
2018-12-10T06:44:38.505Z,92.29
2018-12-10T06:45:38.498Z,92.08
2018-12-10T06:46:38.483Z,92.29
2018-12-10T06:47:38.472Z,92.71
2018-12-10T06:48:38.459Z,92.19
2018-12-10T06:49:38.449Z,92.29
2018-12-10T06:50:38.441Z,92.29
2018-12-10T06:51:38.426Z,92.60
2018-12-10T06:52:38.417Z,93.12
2018-12-10T06:53:38.409Z,93.43
2018-12-10T06:54:38.395Z,92.50
2018-12-10T06:55:38.388Z,91.77
2018-12-10T06:56:38.374Z,91.77
2018-12-10T06:57:38.363Z,92.19
2018-12-10T06:58:38.352Z,92.50
2018-12-10T06:59:38.342Z,92.19
2018-12-10T07:00:38.332Z,92.81
2018-12-10T07:01:38.318Z,93.43
2018-12-10T07:02:38.351Z,93.43
2018-12-10T07:03:38.301Z,94.05
2018-12-10T07:04:38.289Z,93.22
2018-12-10T07:05:38.277Z,94.36
2018-12-10T07:06:38.272Z,94.36
2018-12-10T07:07:38.255Z,95.19
2018-12-10T07:08:38.248Z,94.88
2018-12-10T07:09:38.233Z,94.88
2018-12-10T07:10:38.227Z,95.19
2018-12-10T07:11:38.213Z,95.19
2018-12-10T07:12:38.203Z,94.30
2018-12-10T07:13:38.193Z,93.57
2018-12-10T07:14:38.187Z,93.16
2018-12-10T07:15:38.170Z,93.47
2018-12-10T07:16:38.162Z,94.20
2018-12-10T07:17:38.151Z,93.68
2018-12-10T07:18:38.139Z,93.57
2018-12-10T07:19:38.130Z,93.26
2018-12-10T07:20:38.118Z,93.06
2018-12-10T07:21:38.109Z,93.47
2018-12-10T07:22:38.097Z,93.68
2018-12-10T07:23:38.087Z,93.37
2018-12-10T07:24:38.074Z,93.26
2018-12-10T07:25:38.068Z,93.06
2018-12-10T07:26:38.064Z,92.54
2018-12-10T07:27:38.044Z,93.06
2018-12-10T07:28:38.093Z,93.16
2018-12-10T07:29:38.019Z,93.37
2018-12-10T07:30:41.486Z,93.68
2018-12-10T07:31:38.010Z,93.89
2018-12-10T07:32:37.991Z,93.89
2018-12-10T07:33:37.979Z,93.95
2018-12-10T07:34:37.966Z,93.26
2018-12-10T07:35:37.957Z,93.26
2018-12-10T07:36:37.944Z,93.06
2018-12-10T07:37:37.934Z,92.95
2018-12-10T07:38:37.922Z,92.85
2018-12-10T07:39:37.912Z,93.37
2018-12-10T07:40:37.901Z,93.26
2018-12-10T07:41:37.892Z,92.02
2018-12-10T07:42:37.880Z,92.34
2018-12-10T07:43:37.869Z,92.95
2018-12-10T07:44:37.862Z,93.16
2018-12-10T07:45:37.853Z,92.60
2018-12-10T07:46:37.839Z,92.29
2018-12-10T07:47:37.827Z,92.50
2018-12-10T07:48:37.819Z,91.98
2018-12-10T07:49:37.805Z,92.29
2018-12-10T07:50:37.795Z,91.77
2018-12-10T07:51:37.784Z,92.08
2018-12-10T07:52:37.779Z,91.67
2018-12-10T07:53:37.763Z,90.63
2018-12-10T07:54:37.751Z,90.74
2018-12-10T07:55:37.740Z,90.94
2018-12-10T07:56:37.727Z,91.25
2018-12-10T07:57:37.720Z,91.25
2018-12-10T07:58:37.710Z,91.77
2018-12-10T07:59:37.697Z,90.63
2018-12-10T08:00:37.685Z,90.94
2018-12-10T08:01:37.676Z,90.53
2018-12-10T08:02:37.663Z,91.15
2018-12-10T08:03:37.653Z,91.98
2018-12-10T08:04:37.643Z,91.98
2018-12-10T08:05:37.633Z,92.40
2018-12-10T08:06:37.624Z,91.57
2018-12-10T08:07:37.613Z,90.63
2018-12-10T08:08:37.602Z,90.63
2018-12-10T08:09:37.592Z,90.43
2018-12-10T08:10:37.579Z,90.70
2018-12-10T08:11:37.570Z,90.60
2018-12-10T08:12:37.558Z,91.11
2018-12-10T08:13:37.546Z,91.42
2018-12-10T08:14:37.540Z,91.73
2018-12-10T08:15:37.527Z,91.42
2018-12-10T08:16:37.514Z,91.11
2018-12-10T08:17:37.503Z,91.21
2018-12-10T08:18:37.507Z,91.42
2018-12-10T08:19:37.482Z,92.04
2018-12-10T08:20:37.478Z,91.83
2018-12-10T08:21:37.462Z,91.83
2018-12-10T08:22:37.452Z,91.32
2018-12-10T08:23:37.442Z,91.83
2018-12-10T08:24:37.428Z,92.46
2018-12-10T08:25:37.416Z,92.62
2018-12-10T08:26:37.503Z,90.76
2018-12-10T08:27:37.397Z,90.86
2018-12-10T08:28:37.385Z,90.14
2018-12-10T08:29:37.382Z,91.07
2018-12-10T08:30:37.364Z,89.72
2018-12-10T08:31:37.351Z,90.60
2018-12-10T08:32:37.341Z,91.27
2018-12-10T08:33:37.329Z,91.07
2018-12-10T08:34:41.413Z,91.00
2018-12-10T08:35:40.784Z,90.60
2018-12-10T08:36:37.296Z,90.55
2018-12-10T08:37:37.287Z,90.35
2018-12-10T08:38:37.275Z,91.17
2018-12-10T08:39:37.263Z,90.86
2018-12-10T08:40:37.253Z,90.97
2018-12-10T08:41:37.243Z,91.17
2018-12-10T08:42:37.275Z,90.60
2018-12-10T08:43:37.232Z,91.11
2018-12-10T08:44:37.214Z,91.42
2018-12-10T08:45:37.213Z,91.48
2018-12-10T08:46:37.197Z,91.27
2018-12-10T08:47:37.185Z,90.76
2018-12-10T08:48:37.207Z,90.45
2018-12-10T08:49:37.156Z,90.97
2018-12-10T08:50:37.144Z,91.07
2018-12-10T08:51:37.214Z,89.72
2018-12-10T08:52:37.124Z,90.14
2018-12-10T08:53:37.113Z,90.45
2018-12-10T08:54:37.184Z,90.24
2018-12-10T08:55:37.090Z,89.93
2018-12-10T08:56:37.084Z,88.90
2018-12-10T08:57:37.067Z,90.45
2018-12-10T08:58:37.058Z,89.72
2018-12-10T08:59:37.047Z,90.03
2018-12-10T09:00:37.037Z,89.31
2018-12-10T09:01:37.025Z,89.52
2018-12-10T09:02:37.020Z,90.14
2018-12-10T09:03:37.003Z,88.80
2018-12-10T09:04:36.992Z,89.62
2018-12-10T09:05:36.984Z,89.52
2018-12-10T09:06:36.972Z,89.93
2018-12-10T09:07:36.959Z,89.48
2018-12-10T09:08:36.949Z,90.10
2018-12-10T09:09:36.939Z,89.06
2018-12-10T09:10:36.930Z,89.58
2018-12-10T09:11:36.918Z,89.68
2018-12-10T09:12:36.907Z,89.06
2018-12-10T09:13:36.895Z,88.03
2018-12-10T09:14:36.888Z,88.75
2018-12-10T09:15:36.873Z,86.99
2018-12-10T09:16:36.862Z,87.41
2018-12-10T09:17:36.852Z,88.86
2018-12-10T09:18:36.840Z,89.06
2018-12-10T09:19:36.830Z,88.96
2018-12-10T09:20:36.819Z,88.23
2018-12-10T09:21:36.809Z,87.51
2018-12-10T09:22:36.802Z,86.48
2018-12-10T09:23:36.796Z,87.62
2018-12-10T09:24:36.777Z,87.72
2018-12-10T09:25:36.766Z,86.99
2018-12-10T09:26:36.759Z,87.20
2018-12-10T09:27:36.746Z,88.34
2018-12-10T09:28:36.740Z,88.03
2018-12-10T09:29:36.859Z,88.03
2018-12-10T09:30:36.715Z,88.23
2018-12-10T09:31:36.702Z,86.59
2018-12-10T09:32:36.689Z,87.20
2018-12-10T09:33:36.681Z,87.51
2018-12-10T09:34:36.670Z,87.62
2018-12-10T09:35:36.679Z,86.89
2018-12-10T09:36:36.647Z,87.37
2018-12-10T09:37:36.638Z,87.47
2018-12-10T09:38:36.625Z,87.06
2018-12-10T09:39:36.616Z,85.57
2018-12-10T09:40:36.602Z,85.47
2018-12-10T09:41:36.592Z,85.06
2018-12-10T09:42:36.581Z,85.41
2018-12-10T09:43:36.570Z,84.99
2018-12-10T09:44:36.562Z,85.51
2018-12-10T09:45:36.549Z,85.10
2018-12-10T09:46:36.536Z,85.88
2018-12-10T09:47:36.530Z,86.81
2018-12-10T09:48:36.531Z,85.27
2018-12-10T09:49:36.506Z,86.19
2018-12-10T09:50:36.493Z,86.30
2018-12-10T09:51:36.483Z,86.60
2018-12-10T09:52:36.473Z,86.44
2018-12-10T09:53:36.461Z,86.34
2018-12-10T09:54:36.449Z,86.13
2018-12-10T09:55:36.437Z,85.93
2018-12-10T09:56:36.427Z,85.10
2018-12-10T09:57:36.419Z,86.54
2018-12-10T09:58:36.407Z,85.93
2018-12-10T09:59:36.396Z,86.13
2018-12-10T10:00:36.385Z,87.06
2018-12-10T10:01:36.371Z,87.06
2018-12-10T10:02:36.367Z,86.65
2018-12-10T10:03:36.355Z,87.26
2018-12-10T10:04:36.339Z,87.17
2018-12-10T10:05:36.406Z,87.26
2018-12-10T10:06:36.317Z,85.82
2018-12-10T10:07:36.308Z,85.62
2018-12-10T10:08:36.299Z,85.30
2018-12-10T10:09:36.287Z,86.44
2018-12-10T10:10:36.275Z,87.06
2018-12-10T10:11:36.264Z,86.65
2018-12-10T10:12:36.253Z,87.06
2018-12-10T10:13:36.245Z,86.96
2018-12-10T10:14:36.231Z,86.65
2018-12-10T10:15:36.221Z,86.85
2018-12-10T10:16:36.212Z,87.89
2018-12-10T10:17:36.199Z,89.02
2018-12-10T10:18:36.187Z,88.81
2018-12-10T10:19:36.178Z,88.71
2018-12-10T10:20:36.165Z,88.71
2018-12-10T10:21:36.155Z,88.81
2018-12-10T10:22:36.149Z,88.92
2018-12-10T10:23:36.138Z,88.86
2018-12-10T10:24:36.123Z,88.44
2018-12-10T10:25:36.110Z,87.41
2018-12-10T10:26:36.099Z,86.59
2018-12-10T10:27:36.088Z,88.03
2018-12-10T10:28:36.077Z,86.89
2018-12-10T10:29:36.066Z,87.10
2018-12-10T10:30:36.064Z,87.62
2018-12-10T10:31:36.050Z,87.24
2018-12-10T10:32:36.034Z,88.28
2018-12-10T10:33:36.024Z,87.82
2018-12-10T10:34:36.014Z,87.41
2018-12-10T10:35:36.001Z,87.99
2018-12-10T10:36:35.989Z,87.89
2018-12-10T10:37:35.981Z,88.20
2018-12-10T10:38:35.971Z,88.51
2018-12-10T10:39:35.958Z,87.51
2018-12-10T10:40:35.945Z,88.96
2018-12-10T10:41:35.939Z,89.37
2018-12-10T10:42:35.924Z,87.93
2018-12-10T10:43:35.915Z,88.23
2018-12-10T10:44:35.902Z,87.72
2018-12-10T10:45:35.893Z,88.65
2018-12-10T10:46:35.883Z,88.51
2018-12-10T10:47:35.870Z,87.06
2018-12-10T10:48:35.859Z,86.85
2018-12-10T10:49:35.847Z,85.99
2018-12-10T10:50:35.839Z,86.60
2018-12-10T10:51:35.827Z,87.02
2018-12-10T10:52:35.818Z,86.19
2018-12-10T10:53:35.806Z,86.09
2018-12-10T10:54:35.794Z,86.71
2018-12-10T10:55:35.784Z,86.60
2018-12-10T10:56:35.771Z,86.09
2018-12-10T10:57:35.762Z,86.23
2018-12-10T10:58:35.775Z,87.06
2018-12-10T10:59:35.740Z,86.65
2018-12-10T11:00:35.729Z,87.74
2018-12-10T11:01:35.715Z,88.26
2018-12-10T11:02:35.705Z,86.98
2018-12-10T11:03:35.695Z,87.60
2018-12-10T11:04:37.753Z,86.09
2018-12-10T11:05:35.673Z,86.81
2018-12-10T11:06:35.662Z,86.71
2018-12-10T11:07:35.650Z,87.02
2018-12-10T11:08:35.641Z,88.67
2018-12-10T11:09:35.628Z,87.50
2018-12-10T11:10:35.623Z,87.50
2018-12-10T11:11:35.606Z,88.38
2018-12-10T11:12:35.596Z,86.52
2018-12-10T11:13:35.585Z,87.25
2018-12-10T11:14:35.575Z,87.82
2018-12-10T11:15:35.563Z,87.72
2018-12-10T11:16:35.552Z,87.10
2018-12-10T11:17:35.541Z,85.97
2018-12-10T11:18:35.533Z,86.49
2018-12-10T11:19:35.522Z,84.63
2018-12-10T11:20:35.507Z,85.35
2018-12-10T11:21:35.500Z,86.32
2018-12-10T11:22:35.498Z,87.62
2018-12-10T11:23:35.475Z,85.66
2018-12-10T11:24:35.465Z,85.35
2018-12-10T11:25:35.455Z,85.25
2018-12-10T11:26:35.444Z,84.53
2018-12-10T11:27:35.435Z,86.70
2018-12-10T11:28:35.423Z,87.04
2018-12-10T11:29:35.412Z,85.80
2018-12-10T11:30:35.399Z,87.25
2018-12-10T11:31:35.390Z,86.32
2018-12-10T11:32:35.377Z,84.26
2018-12-10T11:33:35.367Z,85.29
2018-12-10T11:34:35.357Z,86.73
2018-12-10T11:35:35.344Z,86.84
2018-12-10T11:36:35.333Z,85.49
2018-12-10T11:37:35.323Z,85.64
2018-12-10T11:38:35.314Z,86.46
2018-12-10T11:39:35.301Z,85.43
2018-12-10T11:40:35.289Z,86.77
2018-12-10T11:41:35.279Z,85.94
2018-12-10T11:42:35.268Z,85.85
2018-12-10T11:43:35.258Z,85.54
2018-12-10T11:44:35.244Z,85.74
2018-12-10T11:45:35.236Z,86.09
2018-12-10T11:46:35.224Z,87.74
2018-12-10T11:47:35.215Z,88.26
2018-12-10T11:48:35.203Z,87.84
2018-12-10T11:49:35.189Z,86.60
2018-12-10T11:50:35.181Z,85.78
2018-12-10T11:51:35.168Z,86.60
2018-12-10T11:52:35.157Z,87.74
2018-12-10T11:53:35.146Z,85.78
2018-12-10T11:54:35.136Z,87.12
2018-12-10T11:55:35.124Z,86.81
2018-12-10T11:56:35.116Z,86.40
2018-12-10T11:57:35.104Z,86.19
2018-12-10T11:58:35.095Z,86.30
2018-12-10T11:59:35.084Z,86.92
2018-12-10T12:00:35.071Z,88.26
2018-12-10T12:01:35.080Z,88.15
2018-12-10T12:02:35.050Z,87.60
2018-12-10T12:03:35.037Z,85.64
2018-12-10T12:04:35.029Z,87.29
2018-12-10T12:05:35.017Z,87.74
2018-12-10T12:06:35.005Z,87.12
2018-12-10T12:07:34.994Z,85.78
2018-12-10T12:08:34.984Z,85.47
2018-12-10T12:09:34.973Z,85.27
2018-12-10T12:10:34.959Z,86.40
2018-12-10T12:11:34.954Z,86.81
2018-12-10T12:12:34.938Z,85.57
2018-12-10T12:13:34.930Z,85.99
2018-12-10T12:14:34.917Z,85.99
2018-12-10T12:15:34.905Z,85.62
2018-12-10T12:16:34.902Z,86.75
2018-12-10T12:17:34.883Z,86.34
2018-12-10T12:18:34.872Z,86.71
2018-12-10T12:19:34.863Z,86.40
2018-12-10T12:20:34.852Z,86.81
2018-12-10T12:21:34.840Z,86.71
2018-12-10T12:22:34.827Z,87.54
2018-12-10T12:23:34.820Z,86.60
2018-12-10T12:24:34.812Z,88.20
2018-12-10T12:25:34.796Z,86.85
2018-12-10T12:26:34.785Z,86.96
2018-12-10T12:27:34.774Z,88.09
2018-12-10T12:28:34.763Z,87.89
2018-12-10T12:29:34.760Z,87.89
2018-12-10T12:30:34.741Z,87.99
2018-12-10T12:31:34.731Z,86.23
2018-12-10T12:32:34.724Z,86.75
2018-12-10T12:33:34.742Z,87.26
2018-12-10T12:34:34.699Z,88.61
2018-12-10T12:35:34.707Z,87.99
2018-12-10T12:36:34.676Z,88.40
2018-12-10T12:37:34.664Z,89.54
2018-12-10T12:38:34.654Z,89.33
2018-12-10T12:39:34.644Z,89.23
2018-12-10T12:40:34.633Z,89.23
2018-12-10T12:41:34.631Z,88.20
2018-12-10T12:42:34.615Z,88.40
2018-12-10T12:43:34.600Z,88.20
2018-12-10T12:44:34.591Z,88.71
2018-12-10T12:45:34.583Z,88.51
2018-12-10T12:46:34.566Z,89.02
2018-12-10T12:47:34.557Z,88.09
2018-12-10T12:48:34.546Z,88.61
2018-12-10T12:49:34.538Z,88.20
2018-12-10T12:50:34.524Z,88.40
2018-12-10T12:51:34.511Z,87.82
2018-12-10T12:52:34.503Z,88.75